^^
Grace C. Lehan Memorial Weather Station Historical Data
Daily Summary for June 20, 2022 Units:  Both    English   Metric
Daily Weekly Monthly Yearly
  High: Low: Average:
Temperature: 79.5 °F /  26.4 °C 57.7 °F /  14.3 °C 69.2 °F /  20.7 °C
Dew Point: 54.2 °F /  12.3 °C 42.7 °F /  5.9 °C 49 °F /  9.4 °C
Humidity: 65.9% 32.8% 50%
Wind Speed: 9mph /  14.5km/h - 1.3mph /  2.1km/h
Wind Gust: 20mph /  32.2km/h - -
Wind- - WNW
Pressure: 30.07 in /  1018.2 hPa 29.97 in /  1014.8 hPa -
Precipitation: 0.00 in /  0 mm    
 
 
Tabular Data for June 20, 2022
Time Temperature Dew Point Pressure Wind Wind Speed Wind Gust Humidity Rainfall Rate (Hourly) solar
00:00 60.9 °F /  16.1 °C 42.7 °F /  5.9 °C 29.98in /  1015.1hPa WNW 4mph /  6.4km/h 10mph /  16.1km/h 51% 0.00in /  0mm 0 W/m2
00:09 60.8 °F /  16 °C 43 °F /  6.1 °C 29.98in /  1015.1hPa West 2.3mph /  3.7km/h 10mph /  16.1km/h 51.9% 0.00in /  0mm 0 W/m2
00:14 60.7 °F /  15.9 °C 43 °F /  6.1 °C 29.98in /  1015.1hPa WSW 0.9mph /  1.4km/h 10mph /  16.1km/h 52% 0.00in /  0mm 0 W/m2
00:19 60.6 °F /  15.9 °C 43.1 °F /  6.2 °C 29.98in /  1015.1hPa West 1.3mph /  2.1km/h 10mph /  16.1km/h 52.4% 0.00in /  0mm 0 W/m2
00:24 60.5 °F /  15.8 °C 43.1 °F /  6.2 °C 29.98in /  1015.1hPa West 1.2mph /  1.9km/h 10mph /  16.1km/h 52.5% 0.00in /  0mm 0 W/m2
00:29 60.4 °F /  15.8 °C 43.2 °F /  6.2 °C 29.98in /  1015.1hPa West 1.3mph /  2.1km/h 10mph /  16.1km/h 53% 0.00in /  0mm 0 W/m2
00:34 60.3 °F /  15.7 °C 43.1 °F /  6.2 °C 29.98in /  1015.1hPa West 1.5mph /  2.4km/h 11mph /  17.7km/h 53% 0.00in /  0mm 0 W/m2
00:39 60.2 °F /  15.7 °C 43.4 °F /  6.3 °C 29.98in /  1015.1hPa West 1.6mph /  2.6km/h 11mph /  17.7km/h 53.9% 0.00in /  0mm 0 W/m2
00:44 60.1 °F /  15.6 °C 43.4 °F /  6.3 °C 29.98in /  1015.1hPa West 1.8mph /  2.9km/h 11mph /  17.7km/h 54% 0.00in /  0mm 0 W/m2
00:49 60 °F /  15.6 °C 43.7 °F /  6.5 °C 29.98in /  1015.1hPa West 1.2mph /  1.9km/h 11mph /  17.7km/h 54.8% 0.00in /  0mm 0 W/m2
00:54 59.8 °F /  15.4 °C 43.6 °F /  6.4 °C 29.98in /  1015.1hPa West 2.3mph /  3.7km/h 12mph /  19.3km/h 55% 0.00in /  0mm 0 W/m2
00:59 59.7 °F /  15.4 °C 43.5 °F /  6.4 °C 29.98in /  1015.1hPa WSW 1.7mph /  2.7km/h 12mph /  19.3km/h 55% 0.00in /  0mm 0 W/m2
01:04 59.7 °F /  15.4 °C 43.5 °F /  6.4 °C 29.98in /  1015.1hPa West 1.5mph /  2.4km/h 12mph /  19.3km/h 55% 0.00in /  0mm 0 W/m2
01:09 59.7 °F /  15.4 °C 43.5 °F /  6.4 °C 29.98in /  1015.1hPa West 1mph /  1.6km/h 11mph /  17.7km/h 55.1% 0.00in /  0mm 0 W/m2
01:14 59.7 °F /  15.4 °C 43.9 °F /  6.6 °C 29.97in /  1014.8hPa West 2.3mph /  3.7km/h 13mph /  20.9km/h 55.8% 0.00in /  0mm 0 W/m2
01:19 59.7 °F /  15.4 °C 44 °F /  6.7 °C 29.97in /  1014.8hPa West 2.7mph /  4.3km/h 13mph /  20.9km/h 56% 0.00in /  0mm 0 W/m2
01:24 59.7 °F /  15.4 °C 44 °F /  6.7 °C 29.97in /  1014.8hPa WNW 2.8mph /  4.5km/h 13mph /  20.9km/h 56% 0.00in /  0mm 0 W/m2
01:29 59.6 °F /  15.3 °C 44.2 °F /  6.8 °C 29.97in /  1014.8hPa WNW 3.7mph /  6km/h 14mph /  22.5km/h 56.6% 0.00in /  0mm 0 W/m2
01:34 59.6 °F /  15.3 °C 44.4 °F /  6.9 °C 29.97in /  1014.8hPa West 3.2mph /  5.1km/h 14mph /  22.5km/h 57.1% 0.00in /  0mm 0 W/m2
01:39 59.5 °F /  15.3 °C 44.8 °F /  7.1 °C 29.97in /  1014.8hPa West 5mph /  8km/h 17mph /  27.4km/h 58% 0.00in /  0mm 0 W/m2
01:44 59.5 °F /  15.3 °C 44.8 °F /  7.1 °C 29.97in /  1014.8hPa WNW 4.9mph /  7.9km/h 20mph /  32.2km/h 58% 0.00in /  0mm 0 W/m2
01:49 59.6 °F /  15.3 °C 45.1 °F /  7.3 °C 29.97in /  1014.8hPa WNW 4.1mph /  6.6km/h 20mph /  32.2km/h 58.7% 0.00in /  0mm 0 W/m2
01:54 59.6 °F /  15.3 °C 45.3 °F /  7.4 °C 29.97in /  1014.8hPa WNW 6.5mph /  10.5km/h 20mph /  32.2km/h 59% 0.00in /  0mm 0 W/m2
01:59 59.6 °F /  15.3 °C 45.4 °F /  7.4 °C 29.97in /  1014.8hPa WNW 2.9mph /  4.7km/h 20mph /  32.2km/h 59.3% 0.00in /  0mm 0 W/m2
02:04 59.6 °F /  15.3 °C 45.7 °F /  7.6 °C 29.97in /  1014.8hPa WNW 4.2mph /  6.8km/h 20mph /  32.2km/h 60% 0.00in /  0mm 0 W/m2
02:09 59.6 °F /  15.3 °C 45.7 °F /  7.6 °C 29.97in /  1014.8hPa WNW 2.7mph /  4.3km/h 16mph /  25.7km/h 60% 0.00in /  0mm 0 W/m2
02:14 59.6 °F /  15.3 °C 45.7 °F /  7.6 °C 29.97in /  1014.8hPa WNW 4.7mph /  7.6km/h 16mph /  25.7km/h 60% 0.00in /  0mm 0 W/m2
02:19 59.6 °F /  15.3 °C 45.7 °F /  7.6 °C 29.97in /  1014.8hPa West 4.2mph /  6.8km/h 16mph /  25.7km/h 60% 0.00in /  0mm 0 W/m2
02:24 59.6 °F /  15.3 °C 45.7 °F /  7.6 °C 29.98in /  1015.1hPa WNW 3.5mph /  5.6km/h 16mph /  25.7km/h 60% 0.00in /  0mm 0 W/m2
02:29 59.6 °F /  15.3 °C 45.8 °F /  7.7 °C 29.98in /  1015.1hPa WNW 2.9mph /  4.7km/h 16mph /  25.7km/h 60.2% 0.00in /  0mm 0 W/m2
02:34 59.6 °F /  15.3 °C 45.8 °F /  7.7 °C 29.98in /  1015.1hPa West 1mph /  1.6km/h 16mph /  25.7km/h 60.1% 0.00in /  0mm 0 W/m2
02:39 59.5 °F /  15.3 °C 46.1 °F /  7.8 °C 29.98in /  1015.1hPa WNW 1.3mph /  2.1km/h 10mph /  16.1km/h 61% 0.00in /  0mm 0 W/m2
02:44 59.5 °F /  15.3 °C 46 °F /  7.8 °C 29.98in /  1015.1hPa NW 0.1mph /  0.2km/h 10mph /  16.1km/h 60.8% 0.00in /  0mm 0 W/m2
02:49 59.5 °F /  15.3 °C 46 °F /  7.8 °C 29.99in /  1015.5hPa Calm   10mph /  16.1km/h 61% 0.00in /  0mm 0 W/m2
02:54 59.3 °F /  15.2 °C 46.1 °F /  7.8 °C 29.99in /  1015.5hPa Calm   10mph /  16.1km/h 61.4% 0.00in /  0mm 0 W/m2
02:59 59.2 °F /  15.1 °C 46.1 °F /  7.8 °C 29.99in /  1015.5hPa Calm   10mph /  16.1km/h 61.7% 0.00in /  0mm 0 W/m2
03:04 59 °F /  15 °C 46 °F /  7.8 °C 29.98in /  1015.1hPa NW 0.1mph /  0.2km/h 10mph /  16.1km/h 62% 0.00in /  0mm 0 W/m2
03:09 58.9 °F /  14.9 °C 46 °F /  7.8 °C 29.98in /  1015.1hPa Calm   2mph /  3.2km/h 62.2% 0.00in /  0mm 0 W/m2
03:14 58.8 °F /  14.9 °C 45.8 °F /  7.7 °C 29.98in /  1015.1hPa Calm   2mph /  3.2km/h 62.1% 0.00in /  0mm 0 W/m2
03:19 58.7 °F /  14.8 °C 46.1 °F /  7.8 °C 29.99in /  1015.5hPa Calm   2mph /  3.2km/h 62.9% 0.00in /  0mm 0 W/m2
03:24 58.7 °F /  14.8 °C 46.1 °F /  7.8 °C 29.99in /  1015.5hPa Calm   2mph /  3.2km/h 62.9% 0.00in /  0mm 0 W/m2
03:29 58.7 °F /  14.8 °C 46.1 °F /  7.8 °C 29.99in /  1015.5hPa NW 0.2mph /  0.3km/h 2mph /  3.2km/h 63% 0.00in /  0mm 0 W/m2
03:34 58.7 °F /  14.8 °C 46.2 °F /  7.9 °C 29.99in /  1015.5hPa Calm   2mph /  3.2km/h 63% 0.00in /  0mm 0 W/m2
03:39 58.7 °F /  14.8 °C 46.2 °F /  7.9 °C 29.99in /  1015.5hPa Calm   1mph /  1.6km/h 63% 0.00in /  0mm 0 W/m2
03:44 58.7 °F /  14.8 °C 46.1 °F /  7.8 °C 29.99in /  1015.5hPa NW 0.4mph /  0.6km/h 3mph /  4.8km/h 63% 0.00in /  0mm 0 W/m2
03:49 58.6 °F /  14.8 °C 46.2 °F /  7.9 °C 29.99in /  1015.5hPa NW 0.2mph /  0.3km/h 3mph /  4.8km/h 63.4% 0.00in /  0mm 0 W/m2
03:54 58.6 °F /  14.8 °C 46.5 °F /  8.1 °C 29.99in /  1015.5hPa NW 0.4mph /  0.6km/h 3mph /  4.8km/h 64% 0.00in /  0mm 0 W/m2
03:59 58.6 °F /  14.8 °C 46.5 °F /  8.1 °C 29.99in /  1015.5hPa NW 0.8mph /  1.3km/h 5mph /  8km/h 64% 0.00in /  0mm 0 W/m2
04:00 58.6 °F /  14.8 °C 46.5 °F /  8.1 °C 29.99in /  1015.5hPa NNW 2mph /  3.2km/h 5mph /  8km/h 64% 0.00in /  0mm 0 W/m2
04:09 58.5 °F /  14.7 °C 46.4 °F /  8 °C 29.99in /  1015.5hPa NNW 0.1mph /  0.2km/h 2mph /  3.2km/h 64% 0.00in /  0mm 0 W/m2
04:14 58.4 °F /  14.7 °C 46.4 °F /  8 °C 29.99in /  1015.5hPa NNW 1mph /  1.6km/h 6mph /  9.7km/h 64.2% 0.00in /  0mm 0 W/m2
04:19 58.3 °F /  14.6 °C 46.3 °F /  7.9 °C 30.00in /  1015.8hPa NW 0.2mph /  0.3km/h 6mph /  9.7km/h 64.2% 0.00in /  0mm 0 W/m2
04:24 58.3 °F /  14.6 °C 46.4 °F /  8 °C 30.00in /  1015.8hPa NW 0.1mph /  0.2km/h 6mph /  9.7km/h 64.4% 0.00in /  0mm 0 W/m2
04:29 58.2 °F /  14.6 °C 46.5 °F /  8.1 °C 30.00in /  1015.8hPa Calm   6mph /  9.7km/h 65% 0.00in /  0mm 0 W/m2
04:34 58.1 °F /  14.5 °C 46.4 °F /  8 °C 30.00in /  1015.8hPa NW 0.4mph /  0.6km/h 6mph /  9.7km/h 64.9% 0.00in /  0mm 0 W/m2
04:39 58 °F /  14.4 °C 45.9 °F /  7.7 °C 30.00in /  1015.8hPa Calm   4mph /  6.4km/h 64% 0.00in /  0mm 0 W/m2
04:44 58 °F /  14.4 °C 46.1 °F /  7.8 °C 30.00in /  1015.8hPa NW 0.1mph /  0.2km/h 4mph /  6.4km/h 64.5% 0.00in /  0mm 0 W/m2
04:49 58 °F /  14.4 °C 46.3 °F /  7.9 °C 30.00in /  1015.8hPa NW 0.2mph /  0.3km/h 4mph /  6.4km/h 65% 0.00in /  0mm 0 W/m2
04:54 57.9 °F /  14.4 °C 46.2 °F /  7.9 °C 30.00in /  1015.8hPa NW 0.2mph /  0.3km/h 4mph /  6.4km/h 65% 0.00in /  0mm 0 W/m2
04:59 57.9 °F /  14.4 °C 46.2 °F /  7.9 °C 30.00in /  1015.8hPa Calm   4mph /  6.4km/h 65% 0.00in /  0mm 0 W/m2
05:04 57.9 °F /  14.4 °C 46.2 °F /  7.9 °C 30.00in /  1015.8hPa Calm   4mph /  6.4km/h 65% 0.00in /  0mm 0 W/m2
05:09 57.8 °F /  14.3 °C 46 °F /  7.8 °C 30.01in /  1016.1hPa NW 0.1mph /  0.2km/h 3mph /  4.8km/h 64.6% 0.00in /  0mm 0 W/m2
05:14 57.8 °F /  14.3 °C 46.1 °F /  7.8 °C 30.01in /  1016.1hPa NW 0.8mph /  1.3km/h 5mph /  8km/h 65% 0.00in /  0mm 0 W/m2
05:19 57.8 °F /  14.3 °C 46.2 °F /  7.9 °C 30.02in /  1016.5hPa WNW 0.8mph /  1.3km/h 6mph /  9.7km/h 65.1% 0.00in /  0mm 5 W/m2
05:24 57.7 °F /  14.3 °C 46.1 °F /  7.8 °C 30.02in /  1016.5hPa WNW 1mph /  1.6km/h 7mph /  11.3km/h 65% 0.00in /  0mm 7 W/m2
05:29 57.8 °F /  14.3 °C 46.1 °F /  7.8 °C 30.02in /  1016.5hPa West 0.1mph /  0.2km/h 7mph /  11.3km/h 65% 0.00in /  0mm 11 W/m2
05:34 57.9 °F /  14.4 °C 46.2 °F /  7.9 °C 30.02in /  1016.5hPa Calm   7mph /  11.3km/h 65% 0.00in /  0mm 12 W/m2
05:39 57.8 °F /  14.3 °C 46.2 °F /  7.9 °C 30.03in /  1016.8hPa Calm   1mph /  1.6km/h 65% 0.00in /  0mm 14 W/m2
05:44 57.8 °F /  14.3 °C 46.1 °F /  7.8 °C 30.03in /  1016.8hPa WNW 1.2mph /  1.9km/h 6mph /  9.7km/h 65% 0.00in /  0mm 18 W/m2
05:49 57.9 °F /  14.4 °C 46.2 °F /  7.9 °C 30.03in /  1016.8hPa WNW 0.7mph /  1.1km/h 6mph /  9.7km/h 65% 0.00in /  0mm 21 W/m2
05:54 58 °F /  14.4 °C 46.3 °F /  7.9 °C 30.03in /  1016.8hPa Calm   6mph /  9.7km/h 65% 0.00in /  0mm 26 W/m2
05:59 58 °F /  14.4 °C 46.3 °F /  7.9 °C 30.04in /  1017.2hPa NW 0.3mph /  0.5km/h 6mph /  9.7km/h 65% 0.00in /  0mm 28 W/m2
06:04 58 °F /  14.4 °C 46.3 °F /  7.9 °C 30.04in /  1017.2hPa NW 0.2mph /  0.3km/h 6mph /  9.7km/h 65% 0.00in /  0mm 30 W/m2
06:09 58.1 °F /  14.5 °C 46.4 °F /  8 °C 30.04in /  1017.2hPa Calm   4mph /  6.4km/h 65% 0.00in /  0mm 30 W/m2
06:14 58.2 °F /  14.6 °C 46.5 °F /  8.1 °C 30.05in /  1017.5hPa Calm   4mph /  6.4km/h 65% 0.00in /  0mm 40 W/m2
06:19 58.3 °F /  14.6 °C 46.7 °F /  8.2 °C 30.05in /  1017.5hPa Calm   4mph /  6.4km/h 65.2% 0.00in /  0mm 42 W/m2
06:24 58.4 °F /  14.7 °C 47.1 °F /  8.4 °C 30.05in /  1017.5hPa Calm   4mph /  6.4km/h 65.9% 0.00in /  0mm 42 W/m2
06:29 58.6 °F /  14.8 °C 47 °F /  8.3 °C 30.05in /  1017.5hPa NW 0.2mph /  0.3km/h 4mph /  6.4km/h 65.3% 0.00in /  0mm 49 W/m2
06:34 58.8 °F /  14.9 °C 47.1 °F /  8.4 °C 30.05in /  1017.5hPa NW 0.1mph /  0.2km/h 4mph /  6.4km/h 65.2% 0.00in /  0mm 70 W/m2
06:39 59 °F /  15 °C 47.4 °F /  8.6 °C 30.05in /  1017.5hPa Calm   2mph /  3.2km/h 65.3% 0.00in /  0mm 188 W/m2
06:44 59.4 °F /  15.2 °C 47.8 °F /  8.8 °C 30.05in /  1017.5hPa NW 0.5mph /  0.8km/h 4mph /  6.4km/h 65.4% 0.00in /  0mm 216 W/m2
06:49 60.1 °F /  15.6 °C 48 °F /  8.9 °C 30.05in /  1017.5hPa WNW 0.8mph /  1.3km/h 4mph /  6.4km/h 64.3% 0.00in /  0mm 241 W/m2
06:54 60.8 °F /  16 °C 48.5 °F /  9.2 °C 30.05in /  1017.5hPa WNW 0.5mph /  0.8km/h 4mph /  6.4km/h 63.7% 0.00in /  0mm 264 W/m2
06:59 61.8 °F /  16.6 °C 48.9 °F /  9.4 °C 30.05in /  1017.5hPa WNW 0.4mph /  0.6km/h 4mph /  6.4km/h 62.6% 0.00in /  0mm 281 W/m2
07:04 62.6 °F /  17 °C 49.3 °F /  9.6 °C 30.06in /  1017.8hPa WNW 0.2mph /  0.3km/h 4mph /  6.4km/h 61.7% 0.00in /  0mm 294 W/m2
07:09 63.3 °F /  17.4 °C 49.2 °F /  9.6 °C 30.06in /  1017.8hPa WNW 0.3mph /  0.5km/h 3mph /  4.8km/h 60.1% 0.00in /  0mm 288 W/m2
07:14 63.8 °F /  17.7 °C 49.5 °F /  9.7 °C 30.06in /  1017.8hPa NW 0.3mph /  0.5km/h 4mph /  6.4km/h 59.7% 0.00in /  0mm 330 W/m2
07:19 64.4 °F /  18 °C 50.1 °F /  10.1 °C 30.06in /  1017.8hPa Calm   4mph /  6.4km/h 59.5% 0.00in /  0mm 352 W/m2
07:24 65.1 °F /  18.4 °C 49.9 °F /  9.9 °C 30.06in /  1017.8hPa NNW 0.2mph /  0.3km/h 4mph /  6.4km/h 57.9% 0.00in /  0mm 366 W/m2
07:29 65.5 °F /  18.6 °C 50.2 °F /  10.1 °C 30.06in /  1017.8hPa NNW 0.6mph /  1km/h 12mph /  19.3km/h 57.7% 0.00in /  0mm 387 W/m2
07:34 65.9 °F /  18.8 °C 50 °F /  10 °C 30.06in /  1017.8hPa NNW 0.9mph /  1.4km/h 12mph /  19.3km/h 56.4% 0.00in /  0mm 413 W/m2
07:39 66.4 °F /  19.1 °C 50.5 °F /  10.3 °C 30.06in /  1017.8hPa WNW 0.5mph /  0.8km/h 10mph /  16.1km/h 56.5% 0.00in /  0mm 432 W/m2
07:44 67.1 °F /  19.5 °C 51 °F /  10.6 °C 30.06in /  1017.8hPa NNW 0.3mph /  0.5km/h 10mph /  16.1km/h 56.3% 0.00in /  0mm 473 W/m2
07:49 67.7 °F /  19.8 °C 51.3 °F /  10.7 °C 30.06in /  1017.8hPa NW 0.3mph /  0.5km/h 10mph /  16.1km/h 55.6% 0.00in /  0mm 492 W/m2
07:54 68.4 °F /  20.2 °C 51.6 °F /  10.9 °C 30.06in /  1017.8hPa NW 1mph /  1.6km/h 10mph /  16.1km/h 55% 0.00in /  0mm 510 W/m2
07:59 68.8 °F /  20.4 °C 51.4 °F /  10.8 °C 30.06in /  1017.8hPa NW 0.6mph /  1km/h 10mph /  16.1km/h 53.7% 0.00in /  0mm 494 W/m2
08:09 69.6 °F /  20.9 °C 52 °F /  11.1 °C 30.06in /  1017.8hPa NW 0.2mph /  0.3km/h 5mph /  8km/h 53.5% 0.00in /  0mm 529 W/m2
08:14 69.7 °F /  20.9 °C 51.6 °F /  10.9 °C 30.06in /  1017.8hPa WNW 2.3mph /  3.7km/h 8mph /  12.9km/h 52.4% 0.00in /  0mm 552 W/m2
08:19 69.8 °F /  21 °C 52.1 °F /  11.2 °C 30.06in /  1017.8hPa NW 0.2mph /  0.3km/h 8mph /  12.9km/h 53.3% 0.00in /  0mm 561 W/m2
08:24 70.1 °F /  21.2 °C 52.8 °F /  11.6 °C 30.06in /  1017.8hPa North 0.5mph /  0.8km/h 8mph /  12.9km/h 54.3% 0.00in /  0mm 564 W/m2
08:29 70.4 °F /  21.3 °C 52.4 °F /  11.3 °C 30.06in /  1017.8hPa NNW 0.2mph /  0.3km/h 8mph /  12.9km/h 52.9% 0.00in /  0mm 580 W/m2
08:34 70.7 °F /  21.5 °C 52.7 °F /  11.5 °C 30.06in /  1017.8hPa NW 0.9mph /  1.4km/h 8mph /  12.9km/h 52.8% 0.00in /  0mm 610 W/m2
08:39 71 °F /  21.7 °C 52.1 °F /  11.2 °C 30.06in /  1017.8hPa WNW 2.2mph /  3.5km/h 8mph /  12.9km/h 51.2% 0.00in /  0mm 628 W/m2
08:44 71.2 °F /  21.8 °C 52.9 °F /  11.6 °C 30.06in /  1017.8hPa NW 0.4mph /  0.6km/h 8mph /  12.9km/h 52.2% 0.00in /  0mm 642 W/m2
08:49 71.7 °F /  22.1 °C 52.9 °F /  11.6 °C 30.06in /  1017.8hPa NW 0.2mph /  0.3km/h 8mph /  12.9km/h 51.5% 0.00in /  0mm 649 W/m2
08:54 72.2 °F /  22.3 °C 53.2 °F /  11.8 °C 30.06in /  1017.8hPa NW 0.8mph /  1.3km/h 8mph /  12.9km/h 51.2% 0.00in /  0mm 661 W/m2
08:59 72.6 °F /  22.6 °C 53.5 °F /  11.9 °C 30.05in /  1017.5hPa NW 0.4mph /  0.6km/h 8mph /  12.9km/h 51.1% 0.00in /  0mm 679 W/m2
09:04 72.8 °F /  22.7 °C 52.8 °F /  11.6 °C 30.06in /  1017.8hPa West 2.8mph /  4.5km/h 11mph /  17.7km/h 49.5% 0.00in /  0mm 689 W/m2
09:09 72.8 °F /  22.7 °C 53 °F /  11.7 °C 30.06in /  1017.8hPa West 1.2mph /  1.9km/h 11mph /  17.7km/h 49.7% 0.00in /  0mm 701 W/m2
09:14 73.3 °F /  22.9 °C 54.2 °F /  12.3 °C 30.06in /  1017.8hPa WNW 0.3mph /  0.5km/h 11mph /  17.7km/h 51.2% 0.00in /  0mm 714 W/m2
09:19 74.1 °F /  23.4 °C 53.7 °F /  12.1 °C 30.06in /  1017.8hPa WNW 0.9mph /  1.4km/h 11mph /  17.7km/h 49% 0.00in /  0mm 729 W/m2
09:24 74.5 °F /  23.6 °C 52.9 °F /  11.6 °C 30.06in /  1017.8hPa WNW 1.3mph /  2.1km/h 11mph /  17.7km/h 46.9% 0.00in /  0mm 744 W/m2
09:29 74.7 °F /  23.7 °C 53.2 °F /  11.8 °C 30.06in /  1017.8hPa WNW 3mph /  4.8km/h 11mph /  17.7km/h 47.2% 0.00in /  0mm 747 W/m2
09:34 74.6 °F /  23.7 °C 52.4 °F /  11.3 °C 30.06in /  1017.8hPa WNW 2.3mph /  3.7km/h 11mph /  17.7km/h 45.9% 0.00in /  0mm 761 W/m2
09:39 74.4 °F /  23.6 °C 52.3 °F /  11.3 °C 30.06in /  1017.8hPa WNW 2.3mph /  3.7km/h 9mph /  14.5km/h 45.9% 0.00in /  0mm 786 W/m2
09:44 74.3 °F /  23.5 °C 52.4 °F /  11.3 °C 30.06in /  1017.8hPa WNW 1.6mph /  2.6km/h 9mph /  14.5km/h 46.3% 0.00in /  0mm 782 W/m2
09:49 74.4 °F /  23.6 °C 53 °F /  11.7 °C 30.06in /  1017.8hPa NW 0.7mph /  1.1km/h 9mph /  14.5km/h 47.2% 0.00in /  0mm 805 W/m2
09:54 74.8 °F /  23.8 °C 53.8 °F /  12.1 °C 30.05in /  1017.5hPa NW 2.3mph /  3.7km/h 9mph /  14.5km/h 47.9% 0.00in /  0mm 810 W/m2
09:59 75.2 °F /  24 °C 52.8 °F /  11.6 °C 30.05in /  1017.5hPa WNW 3.6mph /  5.8km/h 10mph /  16.1km/h 45.7% 0.00in /  0mm 819 W/m2
10:04 75.1 °F /  23.9 °C 53.1 °F /  11.7 °C 30.06in /  1017.8hPa NW 1.1mph /  1.8km/h 10mph /  16.1km/h 46.3% 0.00in /  0mm 833 W/m2
10:09 75.5 °F /  24.2 °C 53.2 °F /  11.8 °C 30.06in /  1017.8hPa WNW 1.9mph /  3.1km/h 7mph /  11.3km/h 45.8% 0.00in /  0mm 847 W/m2
10:14 75.7 °F /  24.3 °C 52 °F /  11.1 °C 30.06in /  1017.8hPa West 2.3mph /  3.7km/h 10mph /  16.1km/h 43.6% 0.00in /  0mm 854 W/m2
10:19 75.7 °F /  24.3 °C 52.2 °F /  11.2 °C 30.06in /  1017.8hPa WNW 1.7mph /  2.7km/h 12mph /  19.3km/h 44% 0.00in /  0mm 860 W/m2
10:24 76 °F /  24.4 °C 53.6 °F /  12 °C 30.06in /  1017.8hPa WNW 0.9mph /  1.4km/h 12mph /  19.3km/h 45.8% 0.00in /  0mm 872 W/m2
10:29 76.5 °F /  24.7 °C 50.9 °F /  10.5 °C 30.06in /  1017.8hPa WNW 2.9mph /  4.7km/h 14mph /  22.5km/h 40.9% 0.00in /  0mm 882 W/m2
10:34 76.6 °F /  24.8 °C 49.9 °F /  9.9 °C 30.06in /  1017.8hPa WNW 3.1mph /  5km/h 14mph /  22.5km/h 39.1% 0.00in /  0mm 898 W/m2
10:39 76.6 °F /  24.8 °C 49.6 °F /  9.8 °C 30.06in /  1017.8hPa WNW 3.7mph /  6km/h 14mph /  22.5km/h 38.8% 0.00in /  0mm 916 W/m2
10:44 76.5 °F /  24.7 °C 49.1 °F /  9.5 °C 30.06in /  1017.8hPa NW 3.4mph /  5.5km/h 19mph /  30.6km/h 38.2% 0.00in /  0mm 914 W/m2
10:49 76.3 °F /  24.6 °C 47.9 °F /  8.8 °C 30.05in /  1017.5hPa NW 2.3mph /  3.7km/h 19mph /  30.6km/h 36.7% 0.00in /  0mm 921 W/m2
10:54 76.3 °F /  24.6 °C 49.9 °F /  9.9 °C 30.05in /  1017.5hPa WNW 2.1mph /  3.4km/h 19mph /  30.6km/h 39.5% 0.00in /  0mm 928 W/m2
10:59 76.8 °F /  24.9 °C 50.1 °F /  10.1 °C 30.05in /  1017.5hPa NNW 2.1mph /  3.4km/h 19mph /  30.6km/h 39.1% 0.00in /  0mm 933 W/m2
11:04 77.1 °F /  25.1 °C 48.8 °F /  9.3 °C 30.05in /  1017.5hPa WNW 3.2mph /  5.1km/h 19mph /  30.6km/h 37% 0.00in /  0mm 940 W/m2
11:09 77.3 °F /  25.2 °C 49.5 °F /  9.7 °C 30.05in /  1017.5hPa NNW 1.6mph /  2.6km/h 13mph /  20.9km/h 37.7% 0.00in /  0mm 953 W/m2
11:14 77.6 °F /  25.3 °C 49.5 °F /  9.7 °C 30.05in /  1017.5hPa WNW 3.8mph /  6.1km/h 18mph /  29km/h 37.3% 0.00in /  0mm 960 W/m2
11:19 77.5 °F /  25.3 °C 48.9 °F /  9.4 °C 30.05in /  1017.5hPa WNW 2mph /  3.2km/h 18mph /  29km/h 36.7% 0.00in /  0mm 962 W/m2
11:24 77.3 °F /  25.2 °C 48.5 °F /  9.2 °C 30.05in /  1017.5hPa WNW 2.9mph /  4.7km/h 18mph /  29km/h 36.3% 0.00in /  0mm 960 W/m2
11:29 77.2 °F /  25.1 °C 49.7 °F /  9.8 °C 30.05in /  1017.5hPa WNW 1.2mph /  1.9km/h 18mph /  29km/h 38% 0.00in /  0mm 967 W/m2
11:34 77.5 °F /  25.3 °C 50.4 °F /  10.2 °C 30.05in /  1017.5hPa NW 1.7mph /  2.7km/h 18mph /  29km/h 38.6% 0.00in /  0mm 983 W/m2
11:39 77.8 °F /  25.4 °C 50.3 °F /  10.2 °C 30.05in /  1017.5hPa NW 0.9mph /  1.4km/h 13mph /  20.9km/h 38.2% 0.00in /  0mm 983 W/m2
11:44 77.8 °F /  25.4 °C 48 °F /  8.9 °C 30.05in /  1017.5hPa WNW 4.2mph /  6.8km/h 14mph /  22.5km/h 35% 0.00in /  0mm 981 W/m2
11:49 77.5 °F /  25.3 °C 48.5 °F /  9.2 °C 30.05in /  1017.5hPa NW 1.7mph /  2.7km/h 14mph /  22.5km/h 36% 0.00in /  0mm 984 W/m2
11:54 77.3 °F /  25.2 °C 48.3 °F /  9.1 °C 30.05in /  1017.5hPa WNW 2.1mph /  3.4km/h 14mph /  22.5km/h 36.1% 0.00in /  0mm 991 W/m2
11:59 77.3 °F /  25.2 °C 50.3 °F /  10.2 °C 30.05in /  1017.5hPa NW 1.7mph /  2.7km/h 14mph /  22.5km/h 38.8% 0.00in /  0mm 998 W/m2
12:09 78 °F /  25.6 °C 49.5 °F /  9.7 °C 30.05in /  1017.5hPa NW 1.9mph /  3.1km/h 10mph /  16.1km/h 36.8% 0.00in /  0mm 995 W/m2
12:14 78.3 °F /  25.7 °C 50.8 °F /  10.4 °C 30.04in /  1017.2hPa WNW 2.9mph /  4.7km/h 13mph /  20.9km/h 38.3% 0.00in /  0mm 995 W/m2
12:19 78.3 °F /  25.7 °C 49.3 °F /  9.6 °C 30.05in /  1017.5hPa WNW 3.1mph /  5km/h 13mph /  20.9km/h 36.2% 0.00in /  0mm 1005 W/m2
12:24 77.9 °F /  25.5 °C 48.2 °F /  9 °C 30.05in /  1017.5hPa West 1.8mph /  2.9km/h 13mph /  20.9km/h 35.3% 0.00in /  0mm 1007 W/m2
12:29 77.6 °F /  25.3 °C 49.7 °F /  9.8 °C 30.04in /  1017.2hPa West 2.1mph /  3.4km/h 13mph /  20.9km/h 37.5% 0.00in /  0mm 1005 W/m2
12:34 77.9 °F /  25.5 °C 51.2 °F /  10.7 °C 30.04in /  1017.2hPa WNW 4mph /  6.4km/h 16mph /  25.7km/h 39.4% 0.00in /  0mm 1004 W/m2
12:39 78 °F /  25.6 °C 49 °F /  9.4 °C 30.04in /  1017.2hPa WNW 2.5mph /  4km/h 16mph /  25.7km/h 36.1% 0.00in /  0mm 1005 W/m2
12:44 77.9 °F /  25.5 °C 50.7 °F /  10.4 °C 30.04in /  1017.2hPa NW 2mph /  3.2km/h 16mph /  25.7km/h 38.7% 0.00in /  0mm 1023 W/m2
12:49 77.9 °F /  25.5 °C 48.6 °F /  9.2 °C 30.04in /  1017.2hPa WNW 2.8mph /  4.5km/h 16mph /  25.7km/h 35.7% 0.00in /  0mm 1011 W/m2
12:54 77.9 °F /  25.5 °C 50.9 °F /  10.5 °C 30.03in /  1016.8hPa WNW 0.8mph /  1.3km/h 16mph /  25.7km/h 38.9% 0.00in /  0mm 1100 W/m2
12:59 78.2 °F /  25.7 °C 51 °F /  10.6 °C 30.03in /  1016.8hPa WNW 3.1mph /  5km/h 16mph /  25.7km/h 38.6% 0.00in /  0mm 1039 W/m2
13:04 78.1 °F /  25.6 °C 49.4 °F /  9.7 °C 30.03in /  1016.8hPa West 3.3mph /  5.3km/h 18mph /  29km/h 36.5% 0.00in /  0mm 1011 W/m2
13:09 78 °F /  25.6 °C 50.6 °F /  10.3 °C 30.03in /  1016.8hPa WNW 1.3mph /  2.1km/h 18mph /  29km/h 38.3% 0.00in /  0mm 1009 W/m2
13:14 78 °F /  25.6 °C 49.6 °F /  9.8 °C 30.03in /  1016.8hPa WNW 4.5mph /  7.2km/h 18mph /  29km/h 36.9% 0.00in /  0mm 1011 W/m2
13:19 77.7 °F /  25.4 °C 49 °F /  9.4 °C 30.03in /  1016.8hPa WNW 6.6mph /  10.6km/h 18mph /  29km/h 36.5% 0.00in /  0mm 1014 W/m2
13:24 77.4 °F /  25.2 °C 49 °F /  9.4 °C 30.03in /  1016.8hPa WNW 1.1mph /  1.8km/h 18mph /  29km/h 36.8% 0.00in /  0mm 1004 W/m2
13:29 77.5 °F /  25.3 °C 50 °F /  10 °C 30.03in /  1016.8hPa NW 1mph /  1.6km/h 18mph /  29km/h 38% 0.00in /  0mm 1009 W/m2
13:34 77.9 °F /  25.5 °C 50.6 °F /  10.3 °C 30.03in /  1016.8hPa NW 1.6mph /  2.6km/h 18mph /  29km/h 38.4% 0.00in /  0mm 1011 W/m2
13:39 78.2 °F /  25.7 °C 47.2 °F /  8.4 °C 30.03in /  1016.8hPa NW 3.6mph /  5.8km/h 15mph /  24.1km/h 33.6% 0.00in /  0mm 1004 W/m2
13:44 78.3 °F /  25.7 °C 48.2 °F /  9 °C 30.03in /  1016.8hPa NW 2.1mph /  3.4km/h 15mph /  24.1km/h 34.8% 0.00in /  0mm 997 W/m2
13:49 78.3 °F /  25.7 °C 49.2 °F /  9.6 °C 30.03in /  1016.8hPa WNW 3.5mph /  5.6km/h 15mph /  24.1km/h 36% 0.00in /  0mm 993 W/m2
13:54 78.4 °F /  25.8 °C 51 °F /  10.6 °C 30.03in /  1016.8hPa West 0.3mph /  0.5km/h 15mph /  24.1km/h 38.4% 0.00in /  0mm 986 W/m2
13:59 78.7 °F /  25.9 °C 50 °F /  10 °C 30.03in /  1016.8hPa WNW 1.5mph /  2.4km/h 15mph /  24.1km/h 36.6% 0.00in /  0mm 983 W/m2
14:04 78.9 °F /  26.1 °C 48.8 °F /  9.3 °C 30.03in /  1016.8hPa NW 2.6mph /  4.2km/h 15mph /  24.1km/h 34.8% 0.00in /  0mm 981 W/m2
14:09 79 °F /  26.1 °C 50 °F /  10 °C 30.03in /  1016.8hPa WNW 1.6mph /  2.6km/h 10mph /  16.1km/h 36.3% 0.00in /  0mm 977 W/m2
14:14 79.1 °F /  26.2 °C 49.8 °F /  9.9 °C 30.04in /  1017.2hPa WNW 3.2mph /  5.1km/h 12mph /  19.3km/h 35.8% 0.00in /  0mm 974 W/m2
14:19 79 °F /  26.1 °C 49 °F /  9.4 °C 30.03in /  1016.8hPa WNW 1.8mph /  2.9km/h 12mph /  19.3km/h 34.9% 0.00in /  0mm 972 W/m2
14:24 78.8 °F /  26 °C 49.2 °F /  9.6 °C 30.03in /  1016.8hPa WNW 2.2mph /  3.5km/h 12mph /  19.3km/h 35.5% 0.00in /  0mm 965 W/m2
14:29 78.7 °F /  25.9 °C 48.8 °F /  9.3 °C 30.03in /  1016.8hPa WNW 4.6mph /  7.4km/h 18mph /  29km/h 35% 0.00in /  0mm 990 W/m2
14:34 78.7 °F /  25.9 °C 49.6 °F /  9.8 °C 30.03in /  1016.8hPa WNW 3.6mph /  5.8km/h 18mph /  29km/h 36.1% 0.00in /  0mm 1007 W/m2
14:39 78.8 °F /  26 °C 49.7 °F /  9.8 °C 30.03in /  1016.8hPa NW 1.4mph /  2.3km/h 15mph /  24.1km/h 36.2% 0.00in /  0mm 984 W/m2
14:44 78.9 °F /  26.1 °C 50 °F /  10 °C 30.03in /  1016.8hPa NW 2mph /  3.2km/h 15mph /  24.1km/h 36.5% 0.00in /  0mm 942 W/m2
14:49 79 °F /  26.1 °C 49.4 °F /  9.7 °C 30.03in /  1016.8hPa WNW 4.5mph /  7.2km/h 15mph /  24.1km/h 35.5% 0.00in /  0mm 930 W/m2
14:54 79.1 °F /  26.2 °C 49.3 °F /  9.6 °C 30.03in /  1016.8hPa WNW 3.2mph /  5.1km/h 15mph /  24.1km/h 35.2% 0.00in /  0mm 921 W/m2
14:59 79.1 °F /  26.2 °C 49.3 °F /  9.6 °C 30.03in /  1016.8hPa WNW 0.9mph /  1.4km/h 15mph /  24.1km/h 35.4% 0.00in /  0mm 911 W/m2
15:04 79.1 °F /  26.2 °C 51.2 °F /  10.7 °C 30.03in /  1016.8hPa NW 3.5mph /  5.6km/h 15mph /  24.1km/h 37.8% 0.00in /  0mm 914 W/m2
15:09 79.1 °F /  26.2 °C 49.5 °F /  9.7 °C 30.03in /  1016.8hPa NNW 1.1mph /  1.8km/h 14mph /  22.5km/h 35.5% 0.00in /  0mm 916 W/m2
15:14 79.1 °F /  26.2 °C 49.2 °F /  9.6 °C 30.03in /  1016.8hPa NNW 1.1mph /  1.8km/h 14mph /  22.5km/h 35.2% 0.00in /  0mm 909 W/m2
15:19 79.1 °F /  26.2 °C 50.3 °F /  10.2 °C 30.02in /  1016.5hPa WNW 3.4mph /  5.5km/h 14mph /  22.5km/h 36.6% 0.00in /  0mm 881 W/m2
15:24 79.3 °F /  26.3 °C 49.3 °F /  9.6 °C 30.02in /  1016.5hPa West 2.3mph /  3.7km/h 15mph /  24.1km/h 35% 0.00in /  0mm 863 W/m2
15:29 79.3 °F /  26.3 °C 50.1 °F /  10.1 °C 30.02in /  1016.5hPa NW 1.5mph /  2.4km/h 15mph /  24.1km/h 36.1% 0.00in /  0mm 856 W/m2
15:34 79.2 °F /  26.2 °C 48.3 °F /  9.1 °C 30.02in /  1016.5hPa NW 2.3mph /  3.7km/h 15mph /  24.1km/h 33.8% 0.00in /  0mm 842 W/m2
15:39 79.1 °F /  26.2 °C 49.4 °F /  9.7 °C 30.03in /  1016.8hPa WNW 2.7mph /  4.3km/h 11mph /  17.7km/h 35.4% 0.00in /  0mm 828 W/m2
15:44 79.1 °F /  26.2 °C 48.8 °F /  9.3 °C 30.02in /  1016.5hPa NW 1.7mph /  2.7km/h 11mph /  17.7km/h 34.5% 0.00in /  0mm 817 W/m2
15:49 79.2 °F /  26.2 °C 49.8 °F /  9.9 °C 30.02in /  1016.5hPa WNW 1.9mph /  3.1km/h 11mph /  17.7km/h 35.7% 0.00in /  0mm 802 W/m2
15:54 79.5 °F /  26.4 °C 49.4 °F /  9.7 °C 30.02in /  1016.5hPa WNW 4.4mph /  7.1km/h 13mph /  20.9km/h 34.9% 0.00in /  0mm 791 W/m2
15:59 79.4 °F /  26.3 °C 49 °F /  9.4 °C 30.02in /  1016.5hPa WNW 5.6mph /  9km/h 19mph /  30.6km/h 34.5% 0.00in /  0mm 784 W/m2
16:00 79.4 °F /  26.3 °C 47.8 °F /  8.8 °C 30.02in /  1016.5hPa NW 9mph /  14.5km/h 19mph /  30.6km/h 33% 0.00in /  0mm 765 W/m2
16:09 79 °F /  26.1 °C 48.4 °F /  9.1 °C 30.02in /  1016.5hPa West 1.9mph /  3.1km/h 10mph /  16.1km/h 34.2% 0.00in /  0mm 756 W/m2
16:14 79 °F /  26.1 °C 48.8 °F /  9.3 °C 30.02in /  1016.5hPa WNW 2.7mph /  4.3km/h 10mph /  16.1km/h 34.7% 0.00in /  0mm 744 W/m2
16:19 78.9 °F /  26.1 °C 48.4 °F /  9.1 °C 30.02in /  1016.5hPa WNW 1.2mph /  1.9km/h 10mph /  16.1km/h 34.3% 0.00in /  0mm 63 W/m2
16:24 78.8 °F /  26 °C 48.5 °F /  9.2 °C 30.02in /  1016.5hPa NW 0.7mph /  1.1km/h 10mph /  16.1km/h 34.5% 0.00in /  0mm 65 W/m2
16:29 78.7 °F /  25.9 °C 48.1 °F /  8.9 °C 30.03in /  1016.8hPa WNW 2.3mph /  3.7km/h 10mph /  16.1km/h 34.2% 0.00in /  0mm 60 W/m2
16:34 78.7 °F /  25.9 °C 48.5 °F /  9.2 °C 30.02in /  1016.5hPa NW 1.2mph /  1.9km/h 10mph /  16.1km/h 34.7% 0.00in /  0mm 62 W/m2
16:39 78.7 °F /  25.9 °C 48.1 °F /  8.9 °C 30.02in /  1016.5hPa NW 2.2mph /  3.5km/h 10mph /  16.1km/h 34.1% 0.00in /  0mm 58 W/m2
16:44 78.6 °F /  25.9 °C 47 °F /  8.3 °C 30.02in /  1016.5hPa North 1.6mph /  2.6km/h 12mph /  19.3km/h 32.8% 0.00in /  0mm 58 W/m2
16:49 78.4 °F /  25.8 °C 48.4 °F /  9.1 °C 30.02in /  1016.5hPa NW 0.7mph /  1.1km/h 12mph /  19.3km/h 34.9% 0.00in /  0mm 58 W/m2
16:54 78.4 °F /  25.8 °C 48 °F /  8.9 °C 30.02in /  1016.5hPa NNW 0.8mph /  1.3km/h 12mph /  19.3km/h 34.4% 0.00in /  0mm 58 W/m2
16:59 78.3 °F /  25.7 °C 47.5 °F /  8.6 °C 30.02in /  1016.5hPa Calm   12mph /  19.3km/h 33.8% 0.00in /  0mm 67 W/m2
17:04 78.1 °F /  25.6 °C 47 °F /  8.3 °C 30.02in /  1016.5hPa ENE 0.2mph /  0.3km/h 12mph /  19.3km/h 33.3% 0.00in /  0mm 69 W/m2
17:09 78 °F /  25.6 °C 47.7 °F /  8.7 °C 30.02in /  1016.5hPa NW 0.7mph /  1.1km/h 5mph /  8km/h 34.4% 0.00in /  0mm 70 W/m2
17:14 78.1 °F /  25.6 °C 48.1 °F /  8.9 °C 30.02in /  1016.5hPa NW 3.5mph /  5.6km/h 12mph /  19.3km/h 34.8% 0.00in /  0mm 70 W/m2
17:18 78.2 °F /  25.7 °C 47.7 °F /  8.7 °C 30.02in /  1016.5hPa WNW 1.8mph /  2.9km/h 12mph /  19.3km/h 34.2% 0.00in /  0mm 62 W/m2
17:30 78.2 °F /  25.7 °C 47.6 °F /  8.7 °C 30.01in /  1016.1hPa NW 2mph /  3.2km/h 13mph /  20.9km/h 34% 0.00in /  0mm 61 W/m2
18:00 78 °F /  25.6 °C 48.9 °F /  9.4 °C 30.01in /  1016.1hPa Calm   11mph /  17.7km/h 36% 0.00in /  0mm 75 W/m2
18:30 77.3 °F /  25.2 °C 50.4 °F /  10.2 °C 30.01in /  1016.1hPa Calm   6mph /  9.7km/h 39% 0.00in /  0mm 67 W/m2
19:00 76.8 °F /  24.9 °C 50.7 °F /  10.4 °C 30.02in /  1016.5hPa Calm   6mph /  9.7km/h 40% 0.00in /  0mm 64 W/m2
19:30 76 °F /  24.4 °C 51.3 °F /  10.7 °C 30.02in /  1016.5hPa Calm   4mph /  6.4km/h 42% 0.00in /  0mm 51 W/m2
20:04 74.4 °F /  23.6 °C 52.6 °F /  11.4 °C 30.03in /  1016.8hPa Calm   4mph /  6.4km/h 46.6% 0.00in /  0mm 51 W/m2
20:09 74 °F /  23.3 °C 52.5 °F /  11.4 °C 30.03in /  1016.8hPa WNW 0.1mph /  0.2km/h 1mph /  1.6km/h 47% 0.00in /  0mm 21 W/m2
20:14 73.7 °F /  23.2 °C 52.3 °F /  11.3 °C 30.03in /  1016.8hPa Calm   1mph /  1.6km/h 47% 0.00in /  0mm 16 W/m2
20:19 73.4 °F /  23 °C 52.5 °F /  11.4 °C 30.03in /  1016.8hPa Calm   1mph /  1.6km/h 47.9% 0.00in /  0mm 9 W/m2
20:24 73.2 °F /  22.9 °C 52.7 °F /  11.5 °C 30.03in /  1016.8hPa Calm   1mph /  1.6km/h 48.7% 0.00in /  0mm 7 W/m2
20:29 72.8 °F /  22.7 °C 52.6 °F /  11.4 °C 30.04in /  1017.2hPa Calm   1mph /  1.6km/h 49% 0.00in /  0mm 0 W/m2
20:34 72.5 °F /  22.5 °C 52.7 °F /  11.5 °C 30.04in /  1017.2hPa Calm   1mph /  1.6km/h 49.9% 0.00in /  0mm 0 W/m2
20:39 72.1 °F /  22.3 °C 53 °F /  11.7 °C 30.04in /  1017.2hPa Calm     50.9% 0.00in /  0mm 0 W/m2
20:44 71.8 °F /  22.1 °C 52.7 °F /  11.5 °C 30.04in /  1017.2hPa Calm     51% 0.00in /  0mm 0 W/m2
20:49 71.4 °F /  21.9 °C 52.5 °F /  11.4 °C 30.04in /  1017.2hPa Calm     51.3% 0.00in /  0mm 0 W/m2
20:54 71.1 °F /  21.7 °C 52.6 °F /  11.4 °C 30.04in /  1017.2hPa Calm     52% 0.00in /  0mm 0 W/m2
20:59 70.7 °F /  21.5 °C 52.3 °F /  11.3 °C 30.04in /  1017.2hPa Calm     52% 0.00in /  0mm 0 W/m2
21:04 70.4 °F /  21.3 °C 51.9 °F /  11.1 °C 30.04in /  1017.2hPa Calm     52% 0.00in /  0mm 0 W/m2
21:09 70.1 °F /  21.2 °C 51.9 °F /  11.1 °C 30.04in /  1017.2hPa Calm     52.5% 0.00in /  0mm 0 W/m2
21:14 69.8 °F /  21 °C 51.8 °F /  11 °C 30.04in /  1017.2hPa Calm     52.7% 0.00in /  0mm 0 W/m2
21:19 69.6 °F /  20.9 °C 51.8 °F /  11 °C 30.04in /  1017.2hPa Calm     53% 0.00in /  0mm 0 W/m2
21:24 69.4 °F /  20.8 °C 51.6 °F /  10.9 °C 30.04in /  1017.2hPa Calm     53% 0.00in /  0mm 0 W/m2
21:29 69.2 °F /  20.7 °C 51.6 °F /  10.9 °C 30.05in /  1017.5hPa Calm     53.6% 0.00in /  0mm 0 W/m2
21:34 69 °F /  20.6 °C 51.7 °F /  10.9 °C 30.05in /  1017.5hPa Calm     54% 0.00in /  0mm 0 W/m2
21:39 68.8 °F /  20.4 °C 51.5 °F /  10.8 °C 30.05in /  1017.5hPa Calm     54% 0.00in /  0mm 0 W/m2
21:44 68.6 °F /  20.3 °C 51.3 °F /  10.7 °C 30.05in /  1017.5hPa Calm     54% 0.00in /  0mm 0 W/m2
21:49 68.5 °F /  20.3 °C 51.6 °F /  10.9 °C 30.05in /  1017.5hPa Calm     54.9% 0.00in /  0mm 0 W/m2
21:54 68.4 °F /  20.2 °C 52.1 °F /  11.2 °C 30.05in /  1017.5hPa Calm     56% 0.00in /  0mm 0 W/m2
21:59 68.2 °F /  20.1 °C 52 °F /  11.1 °C 30.05in /  1017.5hPa Calm     56% 0.00in /  0mm 0 W/m2
22:04 68.1 °F /  20.1 °C 51.4 °F /  10.8 °C 30.05in /  1017.5hPa Calm     55.2% 0.00in /  0mm 0 W/m2
22:09 68 °F /  20 °C 51.2 °F /  10.7 °C 30.05in /  1017.5hPa Calm     55% 0.00in /  0mm 0 W/m2
22:14 67.9 °F /  19.9 °C 51.2 °F /  10.7 °C 30.05in /  1017.5hPa Calm     55% 0.00in /  0mm 0 W/m2
22:19 67.8 °F /  19.9 °C 51.1 °F /  10.6 °C 30.05in /  1017.5hPa Calm     55% 0.00in /  0mm 0 W/m2
22:24 67.8 °F /  19.9 °C 51.1 °F /  10.6 °C 30.05in /  1017.5hPa Calm     55% 0.00in /  0mm 0 W/m2
22:29 67.8 °F /  19.9 °C 51.1 °F /  10.6 °C 30.05in /  1017.5hPa Calm     55% 0.00in /  0mm 0 W/m2
22:34 67.8 °F /  19.9 °C 51.1 °F /  10.6 °C 30.05in /  1017.5hPa Calm     55% 0.00in /  0mm 0 W/m2
22:39 67.8 °F /  19.9 °C 51.1 °F /  10.6 °C 30.05in /  1017.5hPa Calm     55% 0.00in /  0mm 0 W/m2
22:44 67.7 °F /  19.8 °C 51.3 °F /  10.7 °C 30.05in /  1017.5hPa Calm     55.6% 0.00in /  0mm 0 W/m2
22:49 67.6 °F /  19.8 °C 51.4 °F /  10.8 °C 30.06in /  1017.8hPa Calm     56% 0.00in /  0mm 0 W/m2
22:54 67.5 °F /  19.7 °C 51.3 °F /  10.7 °C 30.05in /  1017.5hPa Calm     56% 0.00in /  0mm 0 W/m2
22:59 67.4 °F /  19.7 °C 51.2 °F /  10.7 °C 30.06in /  1017.8hPa Calm     56% 0.00in /  0mm 0 W/m2
23:04 67.3 °F /  19.6 °C 51.1 °F /  10.6 °C 30.05in /  1017.5hPa Calm     56% 0.00in /  0mm 0 W/m2
23:09 67.2 °F /  19.6 °C 51 °F /  10.6 °C 30.05in /  1017.5hPa Calm     56% 0.00in /  0mm 0 W/m2
23:14 67.1 °F /  19.5 °C 51.2 °F /  10.7 °C 30.06in /  1017.8hPa Calm     56.7% 0.00in /  0mm 0 W/m2
23:19 66.9 °F /  19.4 °C 52 °F /  11.1 °C 30.06in /  1017.8hPa Calm     58.7% 0.00in /  0mm 0 W/m2
23:24 66.7 °F /  19.3 °C 52.1 °F /  11.2 °C 30.06in /  1017.8hPa Calm     59.2% 0.00in /  0mm 0 W/m2
23:29 66.6 °F /  19.2 °C 52.5 °F /  11.4 °C 30.06in /  1017.8hPa Calm     60.3% 0.00in /  0mm 0 W/m2
23:34 66.5 °F /  19.2 °C 52.2 °F /  11.2 °C 30.06in /  1017.8hPa Calm     60% 0.00in /  0mm 0 W/m2
23:39 66.4 °F /  19.1 °C 52.4 °F /  11.3 °C 30.06in /  1017.8hPa Calm     60.7% 0.00in /  0mm 0 W/m2
23:44 66.3 °F /  19.1 °C 52.6 °F /  11.4 °C 30.06in /  1017.8hPa Calm     61.3% 0.00in /  0mm 0 W/m2
23:49 66.2 °F /  19 °C 52.4 °F /  11.3 °C 30.06in /  1017.8hPa Calm     61.2% 0.00in /  0mm 0 W/m2
23:54 66.1 °F /  18.9 °C 52.3 °F /  11.3 °C 30.06in /  1017.8hPa Calm     61.2% 0.00in /  0mm 0 W/m2
23:59 66 °F /  18.9 °C 52.4 °F /  11.3 °C 30.07in /  1018.2hPa Calm     61.6% 0.00in /  0mm 0 W/m2
Hartford County Weather
Compliments of Weather Underground - 2 mb